MCC weather

Mc Clellan Airfield
Sacramento, California, United States

Public forecast

Using degrees Fahrenheit for public forecast. Weather courtesy of forecast.io.

METAR (pilot weather report)

Retrieved 2019/08/23 12:40 UTC (0 seconds ago):

KMCC 231240Z AUTO 16006KT CLR 21/15 A2971 RMK AO2

TAF (pilot weather forecast)

Retrieved 2019/08/23 12:36 UTC (0 seconds ago):

TAF KMCC 231132Z 2312/2412 16007KT P6SM SKC FM232100 21008KT P6SM SKC FM240600 16009KT P6SM SKC